sensor_id;sensor_type;location;lat;lon;timestamp;pressure;altitude;pressure_sealevel;temperature;humidity
54994;BME280;40891;47.242;8.648;2023-02-19T00:00:55;97167.94;;;8.27;94.67
54994;BME280;40891;47.242;8.648;2023-02-19T00:03:20;97175.88;;;8.24;94.88
54994;BME280;40891;47.242;8.648;2023-02-19T00:05:45;97170.78;;;8.19;95.19
54994;BME280;40891;47.242;8.648;2023-02-19T00:08:11;97173.56;;;8.19;95.16
54994;BME280;40891;47.242;8.648;2023-02-19T00:10:36;97171.22;;;8.18;95.48
54994;BME280;40891;47.242;8.648;2023-02-19T00:13:01;97164.53;;;8.15;95.00
54994;BME280;40891;47.242;8.648;2023-02-19T00:15:27;97161.78;;;8.12;95.35
54994;BME280;40891;47.242;8.648;2023-02-19T00:17:52;97159.88;;;8.09;94.71
54994;BME280;40891;47.242;8.648;2023-02-19T00:20:17;97153.56;;;8.08;95.12
54994;BME280;40891;47.242;8.648;2023-02-19T00:22:42;97152.19;;;7.93;95.53
54994;BME280;40891;47.242;8.648;2023-02-19T00:25:08;97156.53;;;7.94;96.27
54994;BME280;40891;47.242;8.648;2023-02-19T00:27:33;97157.78;;;7.90;96.51
54994;BME280;40891;47.242;8.648;2023-02-19T00:29:58;97159.41;;;7.84;97.56
54994;BME280;40891;47.242;8.648;2023-02-19T00:32:25;97170.09;;;7.85;97.41
54994;BME280;40891;47.242;8.648;2023-02-19T00:34:50;97168.78;;;7.93;97.00
54994;BME280;40891;47.242;8.648;2023-02-19T00:37:15;97175.56;;;7.89;96.87
54994;BME280;40891;47.242;8.648;2023-02-19T00:39:41;97176.38;;;7.89;96.88
54994;BME280;40891;47.242;8.648;2023-02-19T00:42:06;97174.41;;;7.86;96.69
54994;BME280;40891;47.242;8.648;2023-02-19T00:44:31;97170.47;;;7.87;96.26
54994;BME280;40891;47.242;8.648;2023-02-19T00:46:57;97163.41;;;7.83;96.51
54994;BME280;40891;47.242;8.648;2023-02-19T00:49:22;97159.97;;;7.72;96.95
54994;BME280;40891;47.242;8.648;2023-02-19T00:51:50;97160.03;;;7.68;98.05
54994;BME280;40891;47.242;8.648;2023-02-19T00:54:16;97160.41;;;7.70;98.42
54994;BME280;40891;47.242;8.648;2023-02-19T00:56:41;97152.09;;;7.70;98.96
54994;BME280;40891;47.242;8.648;2023-02-19T00:59:07;97152.53;;;7.69;98.73
54994;BME280;40891;47.242;8.648;2023-02-19T01:01:32;97147.75;;;7.69;99.15
54994;BME280;40891;47.242;8.648;2023-02-19T01:03:57;97147.66;;;7.76;99.48
54994;BME280;40891;47.242;8.648;2023-02-19T01:06:23;97156.34;;;7.78;99.42
54994;BME280;40891;47.242;8.648;2023-02-19T01:08:48;97155.97;;;7.76;99.91
54994;BME280;40891;47.242;8.648;2023-02-19T01:11:14;97155.03;;;7.86;98.82
54994;BME280;40891;47.242;8.648;2023-02-19T01:13:40;97149.13;;;7.84;98.94
54994;BME280;40891;47.242;8.648;2023-02-19T01:16:20;97157.34;;;7.91;97.87
54994;BME280;40891;47.242;8.648;2023-02-19T01:18:47;97153.06;;;7.87;97.95
54994;BME280;40891;47.242;8.648;2023-02-19T01:21:15;97150.28;;;7.87;98.52
54994;BME280;40891;47.242;8.648;2023-02-19T01:23:41;97151.53;;;7.82;98.31
54994;BME280;40891;47.242;8.648;2023-02-19T01:26:09;97148.41;;;7.80;99.32
54994;BME280;40891;47.242;8.648;2023-02-19T01:28:35;97140.38;;;7.89;100.00
54994;BME280;40891;47.242;8.648;2023-02-19T01:31:02;97136.34;;;7.94;99.61
54994;BME280;40891;47.242;8.648;2023-02-19T01:33:28;97140.69;;;7.95;99.61
54994;BME280;40891;47.242;8.648;2023-02-19T01:35:54;97130.19;;;8.09;98.97
54994;BME280;40891;47.242;8.648;2023-02-19T01:38:19;97130.06;;;8.16;99.59
54994;BME280;40891;47.242;8.648;2023-02-19T01:40:44;97124.41;;;8.27;99.30
54994;BME280;40891;47.242;8.648;2023-02-19T01:43:14;97129.97;;;8.23;98.78
54994;BME280;40891;47.242;8.648;2023-02-19T01:45:43;97119.28;;;8.26;97.99
54994;BME280;40891;47.242;8.648;2023-02-19T01:48:47;97130.63;;;8.35;97.29
54994;BME280;40891;47.242;8.648;2023-02-19T01:51:16;97125.03;;;8.11;96.50
54994;BME280;40891;47.242;8.648;2023-02-19T01:53:46;97118.84;;;8.00;97.39
54994;BME280;40891;47.242;8.648;2023-02-19T01:56:16;97111.47;;;7.90;98.00
54994;BME280;40891;47.242;8.648;2023-02-19T01:58:43;97120.56;;;7.91;99.27
54994;BME280;40891;47.242;8.648;2023-02-19T02:01:09;97130.50;;;7.88;99.34
54994;BME280;40891;47.242;8.648;2023-02-19T02:03:36;97126.09;;;7.91;100.00
54994;BME280;40891;47.242;8.648;2023-02-19T02:06:08;97122.78;;;8.03;100.00
54994;BME280;40891;47.242;8.648;2023-02-19T02:08:36;97122.56;;;8.17;99.89
54994;BME280;40891;47.242;8.648;2023-02-19T02:11:20;97121.47;;;8.38;98.60
54994;BME280;40891;47.242;8.648;2023-02-19T02:13:46;97120.03;;;8.53;97.99
54994;BME280;40891;47.242;8.648;2023-02-19T02:16:22;97113.91;;;8.65;97.41
54994;BME280;40891;47.242;8.648;2023-02-19T02:21:23;97109.19;;;8.62;97.02
54994;BME280;40891;47.242;8.648;2023-02-19T02:30:08;97084.22;;;8.42;96.39
54994;BME280;40891;47.242;8.648;2023-02-19T02:35:21;97073.91;;;8.66;95.43
54994;BME280;40891;47.242;8.648;2023-02-19T02:37:48;97079.69;;;8.75;95.14
54994;BME280;40891;47.242;8.648;2023-02-19T02:40:16;97074.13;;;8.75;93.68
54994;BME280;40891;47.242;8.648;2023-02-19T02:42:42;97076.84;;;8.55;95.09
54994;BME280;40891;47.242;8.648;2023-02-19T02:45:31;97080.28;;;8.40;95.25
54994;BME280;40891;47.242;8.648;2023-02-19T02:48:03;97068.44;;;8.39;95.17
54994;BME280;40891;47.242;8.648;2023-02-19T02:50:40;97059.16;;;8.22;95.57
54994;BME280;40891;47.242;8.648;2023-02-19T02:53:27;97051.03;;;8.12;96.07
54994;BME280;40891;47.242;8.648;2023-02-19T02:56:13;97049.63;;;8.00;96.69
54994;BME280;40891;47.242;8.648;2023-02-19T02:58:40;97042.81;;;8.05;97.92
54994;BME280;40891;47.242;8.648;2023-02-19T03:01:09;97043.72;;;7.98;97.76
54994;BME280;40891;47.242;8.648;2023-02-19T03:04:02;97047.28;;;7.99;97.27
54994;BME280;40891;47.242;8.648;2023-02-19T03:06:30;97050.22;;;7.88;97.97
54994;BME280;40891;47.242;8.648;2023-02-19T03:09:08;97052.34;;;7.77;98.05
54994;BME280;40891;47.242;8.648;2023-02-19T03:11:37;97046.94;;;7.70;98.68
54994;BME280;40891;47.242;8.648;2023-02-19T03:14:29;97066.25;;;7.43;99.85
54994;BME280;40891;47.242;8.648;2023-02-19T03:17:25;97067.97;;;7.34;100.00
54994;BME280;40891;47.242;8.648;2023-02-19T03:20:13;97072.50;;;7.21;100.00
54994;BME280;40891;47.242;8.648;2023-02-19T03:22:41;97067.06;;;7.10;100.00
54994;BME280;40891;47.242;8.648;2023-02-19T03:25:16;97065.06;;;7.14;100.00
54994;BME280;40891;47.242;8.648;2023-02-19T03:28:04;97073.81;;;7.09;100.00
54994;BME280;40891;47.242;8.648;2023-02-19T03:30:33;97074.19;;;7.11;100.00
54994;BME280;40891;47.242;8.648;2023-02-19T03:33:03;97079.00;;;7.04;100.00
54994;BME280;40891;47.242;8.648;2023-02-19T03:35:45;97079.34;;;7.09;100.00
54994;BME280;40891;47.242;8.648;2023-02-19T03:38:25;97074.13;;;7.15;100.00
54994;BME280;40891;47.242;8.648;2023-02-19T03:41:15;97079.25;;;7.16;100.00
54994;BME280;40891;47.242;8.648;2023-02-19T03:49:41;97075.81;;;7.39;100.00
54994;BME280;40891;47.242;8.648;2023-02-19T03:54:39;97059.28;;;7.62;100.00
54994;BME280;40891;47.242;8.648;2023-02-19T04:00:17;97053.75;;;7.89;100.00
54994;BME280;40891;47.242;8.648;2023-02-19T04:02:49;97059.41;;;8.08;100.00
54994;BME280;40891;47.242;8.648;2023-02-19T04:05:20;97069.47;;;8.22;99.71
54994;BME280;40891;47.242;8.648;2023-02-19T04:07:49;97072.66;;;8.20;99.75
54994;BME280;40891;47.242;8.648;2023-02-19T04:10:17;97087.69;;;8.19;99.18
54994;BME280;40891;47.242;8.648;2023-02-19T04:12:48;97096.38;;;8.21;99.33
54994;BME280;40891;47.242;8.648;2023-02-19T04:15:20;97106.44;;;8.39;97.69
54994;BME280;40891;47.242;8.648;2023-02-19T04:17:53;97096.06;;;8.43;97.44
54994;BME280;40891;47.242;8.648;2023-02-19T04:20:21;97091.31;;;8.43;97.45
54994;BME280;40891;47.242;8.648;2023-02-19T04:22:47;97088.97;;;8.42;97.52
54994;BME280;40891;47.242;8.648;2023-02-19T04:25:13;97092.88;;;8.44;96.68
54994;BME280;40891;47.242;8.648;2023-02-19T04:27:38;97096.41;;;8.45;96.67
54994;BME280;40891;47.242;8.648;2023-02-19T04:30:06;97094.88;;;8.44;96.67
54994;BME280;40891;47.242;8.648;2023-02-19T04:32:31;97089.75;;;8.42;96.82
54994;BME280;40891;47.242;8.648;2023-02-19T04:34:57;97085.47;;;8.61;95.58
54994;BME280;40891;47.242;8.648;2023-02-19T04:37:22;97081.00;;;8.67;94.00
54994;BME280;40891;47.242;8.648;2023-02-19T04:39:47;97067.66;;;8.81;92.79
54994;BME280;40891;47.242;8.648;2023-02-19T04:42:13;97044.91;;;8.90;92.48
54994;BME280;40891;47.242;8.648;2023-02-19T04:44:38;97040.47;;;8.96;91.43
54994;BME280;40891;47.242;8.648;2023-02-19T04:47:04;97049.25;;;8.91;91.94
54994;BME280;40891;47.242;8.648;2023-02-19T04:49:29;97062.03;;;8.85;91.99
54994;BME280;40891;47.242;8.648;2023-02-19T04:51:55;97057.38;;;8.82;92.59
54994;BME280;40891;47.242;8.648;2023-02-19T04:54:20;97053.09;;;8.77;93.13
54994;BME280;40891;47.242;8.648;2023-02-19T04:56:45;97059.41;;;8.78;93.17
54994;BME280;40891;47.242;8.648;2023-02-19T04:59:11;97048.16;;;8.65;93.96
54994;BME280;40891;47.242;8.648;2023-02-19T05:01:36;97044.19;;;8.66;94.75
54994;BME280;40891;47.242;8.648;2023-02-19T05:04:02;97050.63;;;8.60;95.30
54994;BME280;40891;47.242;8.648;2023-02-19T05:06:28;97070.34;;;8.65;93.46
54994;BME280;40891;47.242;8.648;2023-02-19T05:08:54;97075.75;;;8.72;94.05
54994;BME280;40891;47.242;8.648;2023-02-19T05:11:19;97074.53;;;8.97;90.63
54994;BME280;40891;47.242;8.648;2023-02-19T05:13:44;97075.63;;;8.99;91.27
54994;BME280;40891;47.242;8.648;2023-02-19T05:16:12;97078.41;;;8.99;91.34
54994;BME280;40891;47.242;8.648;2023-02-19T05:18:40;97070.88;;;9.00;91.18
54994;BME280;40891;47.242;8.648;2023-02-19T05:21:06;97081.69;;;8.94;91.43
54994;BME280;40891;47.242;8.648;2023-02-19T05:23:32;97077.31;;;8.97;91.48
54994;BME280;40891;47.242;8.648;2023-02-19T05:25:57;97077.34;;;8.93;92.59
54994;BME280;40891;47.242;8.648;2023-02-19T05:28:23;97083.25;;;8.95;92.39
54994;BME280;40891;47.242;8.648;2023-02-19T05:30:53;97081.25;;;8.96;92.96
54994;BME280;40891;47.242;8.648;2023-02-19T05:33:21;97073.88;;;8.89;93.84
54994;BME280;40891;47.242;8.648;2023-02-19T05:35:49;97081.97;;;8.80;96.14
54994;BME280;40891;47.242;8.648;2023-02-19T05:38:15;97084.31;;;8.81;97.75
54994;BME280;40891;47.242;8.648;2023-02-19T05:40:41;97086.78;;;8.76;99.00
54994;BME280;40891;47.242;8.648;2023-02-19T05:43:07;97081.09;;;8.83;99.12
54994;BME280;40891;47.242;8.648;2023-02-19T05:45:33;97080.50;;;8.72;99.67
54994;BME280;40891;47.242;8.648;2023-02-19T05:47:58;97077.03;;;8.68;100.00
54994;BME280;40891;47.242;8.648;2023-02-19T05:50:24;97094.03;;;8.70;100.00
54994;BME280;40891;47.242;8.648;2023-02-19T05:52:50;97091.66;;;8.68;100.00
54994;BME280;40891;47.242;8.648;2023-02-19T05:55:15;97082.97;;;8.66;99.56
54994;BME280;40891;47.242;8.648;2023-02-19T05:57:41;97090.03;;;8.71;100.00
54994;BME280;40891;47.242;8.648;2023-02-19T06:00:16;97086.09;;;8.68;100.00
54994;BME280;40891;47.242;8.648;2023-02-19T06:02:43;97086.06;;;8.72;98.55
54994;BME280;40891;47.242;8.648;2023-02-19T06:05:09;97078.41;;;8.79;97.18
54994;BME280;40891;47.242;8.648;2023-02-19T06:07:34;97081.09;;;8.83;97.51
54994;BME280;40891;47.242;8.648;2023-02-19T06:10:00;97085.09;;;8.82;98.38
54994;BME280;40891;47.242;8.648;2023-02-19T06:12:26;97088.13;;;8.87;95.92
54994;BME280;40891;47.242;8.648;2023-02-19T06:14:51;97086.25;;;9.04;95.15
54994;BME280;40891;47.242;8.648;2023-02-19T06:17:17;97095.44;;;9.01;94.11
54994;BME280;40891;47.242;8.648;2023-02-19T06:19:42;97093.84;;;9.00;95.02
54994;BME280;40891;47.242;8.648;2023-02-19T06:22:08;97101.69;;;9.05;95.12
54994;BME280;40891;47.242;8.648;2023-02-19T06:24:33;97115.41;;;9.12;95.35
54994;BME280;40891;47.242;8.648;2023-02-19T06:27:04;97129.78;;;9.07;94.16
54994;BME280;40891;47.242;8.648;2023-02-19T06:29:30;97125.31;;;9.13;92.92
54994;BME280;40891;47.242;8.648;2023-02-19T06:31:56;97124.53;;;9.13;93.32
54994;BME280;40891;47.242;8.648;2023-02-19T06:34:22;97129.66;;;9.14;92.88
54994;BME280;40891;47.242;8.648;2023-02-19T06:36:48;97126.81;;;9.18;91.34
54994;BME280;40891;47.242;8.648;2023-02-19T06:39:13;97134.34;;;9.17;91.26
54994;BME280;40891;47.242;8.648;2023-02-19T06:41:38;97145.09;;;9.15;91.72
54994;BME280;40891;47.242;8.648;2023-02-19T06:44:04;97149.97;;;9.08;93.45
54994;BME280;40891;47.242;8.648;2023-02-19T06:46:29;97148.88;;;9.02;94.04
54994;BME280;40891;47.242;8.648;2023-02-19T06:48:54;97153.94;;;9.07;95.27
54994;BME280;40891;47.242;8.648;2023-02-19T06:51:20;97159.72;;;8.96;96.51
54994;BME280;40891;47.242;8.648;2023-02-19T06:53:51;97167.91;;;8.80;97.59
54994;BME280;40891;47.242;8.648;2023-02-19T06:56:41;97177.19;;;8.70;97.98
54994;BME280;40891;47.242;8.648;2023-02-19T06:59:09;97189.09;;;8.67;98.53
54994;BME280;40891;47.242;8.648;2023-02-19T07:01:35;97181.56;;;8.67;98.45
54994;BME280;40891;47.242;8.648;2023-02-19T07:04:02;97187.38;;;8.76;95.93
54994;BME280;40891;47.242;8.648;2023-02-19T07:06:28;97197.44;;;8.90;93.99
54994;BME280;40891;47.242;8.648;2023-02-19T07:08:55;97190.56;;;8.98;92.27
54994;BME280;40891;47.242;8.648;2023-02-19T07:11:21;97204.97;;;9.13;93.05
54994;BME280;40891;47.242;8.648;2023-02-19T07:13:46;97201.66;;;9.21;93.42
54994;BME280;40891;47.242;8.648;2023-02-19T07:16:13;97214.84;;;9.14;93.55
54994;BME280;40891;47.242;8.648;2023-02-19T07:18:39;97216.75;;;9.20;91.88
54994;BME280;40891;47.242;8.648;2023-02-19T07:21:11;97222.69;;;9.19;92.02
54994;BME280;40891;47.242;8.648;2023-02-19T07:23:37;97233.38;;;9.20;92.32
54994;BME280;40891;47.242;8.648;2023-02-19T07:26:03;97230.19;;;9.22;91.58
54994;BME280;40891;47.242;8.648;2023-02-19T07:28:28;97227.63;;;9.31;91.30
54994;BME280;40891;47.242;8.648;2023-02-19T07:30:59;97232.88;;;9.48;91.96
54994;BME280;40891;47.242;8.648;2023-02-19T07:33:24;97234.59;;;9.62;93.40
54994;BME280;40891;47.242;8.648;2023-02-19T07:35:50;97239.84;;;9.56;93.53
54994;BME280;40891;47.242;8.648;2023-02-19T07:38:20;97242.97;;;9.82;92.41
54994;BME280;40891;47.242;8.648;2023-02-19T07:40:59;97245.16;;;10.10;88.01
54994;BME280;40891;47.242;8.648;2023-02-19T07:43:28;97248.81;;;10.27;85.51
54994;BME280;40891;47.242;8.648;2023-02-19T07:45:54;97250.06;;;10.42;85.67
54994;BME280;40891;47.242;8.648;2023-02-19T07:48:20;97257.66;;;10.57;85.30
54994;BME280;40891;47.242;8.648;2023-02-19T07:50:57;97256.22;;;10.69;84.32
54994;BME280;40891;47.242;8.648;2023-02-19T07:53:24;97253.34;;;10.88;84.14
54994;BME280;40891;47.242;8.648;2023-02-19T07:55:50;97260.50;;;11.06;81.99
54994;BME280;40891;47.242;8.648;2023-02-19T07:58:15;97262.94;;;11.20;82.87
54994;BME280;40891;47.242;8.648;2023-02-19T08:00:40;97260.75;;;11.27;82.07
54994;BME280;40891;47.242;8.648;2023-02-19T08:03:06;97271.28;;;11.36;81.98
54994;BME280;40891;47.242;8.648;2023-02-19T08:05:42;97262.94;;;11.52;82.03
54994;BME280;40891;47.242;8.648;2023-02-19T08:08:14;97264.09;;;11.67;80.79
54994;BME280;40891;47.242;8.648;2023-02-19T08:10:40;97273.34;;;11.64;80.47
54994;BME280;40891;47.242;8.648;2023-02-19T08:13:25;97275.88;;;11.58;81.23
54994;BME280;40891;47.242;8.648;2023-02-19T08:16:08;97282.41;;;11.20;81.64
54994;BME280;40891;47.242;8.648;2023-02-19T08:18:34;97290.75;;;11.04;82.85
54994;BME280;40891;47.242;8.648;2023-02-19T08:20:59;97298.31;;;10.87;84.92
54994;BME280;40891;47.242;8.648;2023-02-19T08:23:26;97295.63;;;10.28;87.13
54994;BME280;40891;47.242;8.648;2023-02-19T08:25:53;97286.38;;;10.15;89.38
54994;BME280;40891;47.242;8.648;2023-02-19T08:28:21;97289.75;;;10.03;90.09
54994;BME280;40891;47.242;8.648;2023-02-19T08:30:46;97295.50;;;9.92;89.48
54994;BME280;40891;47.242;8.648;2023-02-19T08:33:14;97290.66;;;9.96;90.90
54994;BME280;40891;47.242;8.648;2023-02-19T08:35:40;97297.72;;;10.01;88.54
54994;BME280;40891;47.242;8.648;2023-02-19T08:38:07;97303.59;;;10.26;86.89
54994;BME280;40891;47.242;8.648;2023-02-19T08:40:33;97295.25;;;10.46;87.41
54994;BME280;40891;47.242;8.648;2023-02-19T08:43:03;97311.66;;;10.60;85.96
54994;BME280;40891;47.242;8.648;2023-02-19T08:45:30;97305.63;;;10.97;85.51
54994;BME280;40891;47.242;8.648;2023-02-19T08:47:55;97308.88;;;11.12;84.49
54994;BME280;40891;47.242;8.648;2023-02-19T08:50:21;97304.53;;;11.75;83.36
54994;BME280;40891;47.242;8.648;2023-02-19T08:52:46;97303.44;;;12.43;79.98
54994;BME280;40891;47.242;8.648;2023-02-19T08:55:12;97311.34;;;12.85;74.89
54994;BME280;40891;47.242;8.648;2023-02-19T08:57:37;97298.19;;;13.36;72.41
54994;BME280;40891;47.242;8.648;2023-02-19T09:00:04;97297.94;;;13.56;70.39
54994;BME280;40891;47.242;8.648;2023-02-19T09:02:30;97305.19;;;13.53;73.04
54994;BME280;40891;47.242;8.648;2023-02-19T09:04:55;97303.31;;;13.50;70.70
54994;BME280;40891;47.242;8.648;2023-02-19T09:07:21;97305.03;;;13.10;69.45
54994;BME280;40891;47.242;8.648;2023-02-19T09:09:47;97311.94;;;13.18;70.85
54994;BME280;40891;47.242;8.648;2023-02-19T09:12:12;97303.91;;;13.20;69.64
54994;BME280;40891;47.242;8.648;2023-02-19T09:14:38;97304.66;;;13.21;69.80
54994;BME280;40891;47.242;8.648;2023-02-19T09:17:05;97304.91;;;13.14;69.41
54994;BME280;40891;47.242;8.648;2023-02-19T09:19:31;97308.78;;;12.91;71.23
54994;BME280;40891;47.242;8.648;2023-02-19T09:21:56;97315.63;;;12.49;72.06
54994;BME280;40891;47.242;8.648;2023-02-19T09:24:23;97312.56;;;12.30;72.31
54994;BME280;40891;47.242;8.648;2023-02-19T09:26:52;97313.31;;;12.18;73.89
54994;BME280;40891;47.242;8.648;2023-02-19T09:29:19;97308.84;;;12.21;74.16
54994;BME280;40891;47.242;8.648;2023-02-19T09:31:45;97303.91;;;12.41;73.22
54994;BME280;40891;47.242;8.648;2023-02-19T09:34:11;97309.19;;;12.23;74.78
54994;BME280;40891;47.242;8.648;2023-02-19T09:36:37;97310.34;;;12.09;75.30
54994;BME280;40891;47.242;8.648;2023-02-19T09:39:04;97311.91;;;11.82;75.61
54994;BME280;40891;47.242;8.648;2023-02-19T09:41:33;97309.91;;;11.66;76.55
54994;BME280;40891;47.242;8.648;2023-02-19T09:44:01;97307.66;;;11.77;77.03
54994;BME280;40891;47.242;8.648;2023-02-19T09:46:37;97306.53;;;11.75;75.88
54994;BME280;40891;47.242;8.648;2023-02-19T09:49:18;97311.97;;;11.94;75.56
54994;BME280;40891;47.242;8.648;2023-02-19T09:51:52;97305.47;;;11.85;75.95
54994;BME280;40891;47.242;8.648;2023-02-19T09:54:22;97310.31;;;11.81;77.20
54994;BME280;40891;47.242;8.648;2023-02-19T09:56:48;97305.75;;;12.03;76.20
54994;BME280;40891;47.242;8.648;2023-02-19T09:59:20;97307.91;;;12.11;75.81
54994;BME280;40891;47.242;8.648;2023-02-19T10:01:50;97307.97;;;12.24;73.90
54994;BME280;40891;47.242;8.648;2023-02-19T10:04:19;97314.91;;;12.03;74.11
54994;BME280;40891;47.242;8.648;2023-02-19T10:06:45;97309.16;;;12.10;76.82
54994;BME280;40891;47.242;8.648;2023-02-19T10:09:23;97310.56;;;12.31;75.46
54994;BME280;40891;47.242;8.648;2023-02-19T10:11:52;97301.81;;;12.58;75.24
54994;BME280;40891;47.242;8.648;2023-02-19T10:14:22;97294.16;;;12.87;74.61
54994;BME280;40891;47.242;8.648;2023-02-19T10:16:52;97294.28;;;12.96;72.36
54994;BME280;40891;47.242;8.648;2023-02-19T10:19:18;97294.84;;;13.04;70.84
54994;BME280;40891;47.242;8.648;2023-02-19T10:21:43;97294.97;;;13.13;69.92
54994;BME280;40891;47.242;8.648;2023-02-19T10:24:23;97297.88;;;13.09;69.90
54994;BME280;40891;47.242;8.648;2023-02-19T10:26:49;97307.56;;;13.30;69.17
54994;BME280;40891;47.242;8.648;2023-02-19T10:29:15;97303.97;;;13.54;69.62
54994;BME280;40891;47.242;8.648;2023-02-19T10:31:40;97299.72;;;13.62;67.49
54994;BME280;40891;47.242;8.648;2023-02-19T10:34:20;97291.41;;;14.06;66.06
54994;BME280;40891;47.242;8.648;2023-02-19T10:36:47;97284.53;;;13.98;65.58
54994;BME280;40891;47.242;8.648;2023-02-19T10:41:47;97256.31;;;19.10;50.48
54994;BME280;40891;47.242;8.648;2023-02-19T10:44:15;97250.16;;;21.49;43.67
54994;BME280;40891;47.242;8.648;2023-02-19T10:46:47;97253.59;;;22.07;38.91
54994;BME280;40891;47.242;8.648;2023-02-19T10:49:23;97248.16;;;22.73;39.15
54994;BME280;40891;47.242;8.648;2023-02-19T10:51:51;97250.50;;;22.05;39.68
54994;BME280;40891;47.242;8.648;2023-02-19T10:54:23;97257.09;;;20.86;41.81
54994;BME280;40891;47.242;8.648;2023-02-19T10:56:49;97267.38;;;19.97;43.77
54994;BME280;40891;47.242;8.648;2023-02-19T11:02:15;97260.47;;;18.41;47.98
54994;BME280;40891;47.242;8.648;2023-02-19T11:04:41;97268.13;;;18.26;48.57
54994;BME280;40891;47.242;8.648;2023-02-19T11:07:14;97259.44;;;18.53;48.26
54994;BME280;40891;47.242;8.648;2023-02-19T11:09:43;97259.03;;;18.46;48.14
54994;BME280;40891;47.242;8.648;2023-02-19T11:12:12;97250.06;;;18.32;48.34
54994;BME280;40891;47.242;8.648;2023-02-19T11:14:42;97254.63;;;17.92;50.39
54994;BME280;40891;47.242;8.648;2023-02-19T11:17:21;97262.88;;;17.06;51.71
54994;BME280;40891;47.242;8.648;2023-02-19T11:19:51;97275.84;;;16.53;53.33
54994;BME280;40891;47.242;8.648;2023-02-19T11:22:36;97276.75;;;15.77;55.50
54994;BME280;40891;47.242;8.648;2023-02-19T11:27:34;97273.19;;;14.57;61.51
54994;BME280;40891;47.242;8.648;2023-02-19T11:32:54;97270.66;;;13.94;65.73
54994;BME280;40891;47.242;8.648;2023-02-19T11:35:21;97266.94;;;13.63;67.38
54994;BME280;40891;47.242;8.648;2023-02-19T11:37:59;97270.91;;;13.53;68.19
54994;BME280;40891;47.242;8.648;2023-02-19T11:49:56;97270.78;;;13.91;68.76
54994;BME280;40891;47.242;8.648;2023-02-19T11:52:36;97267.06;;;13.94;67.70
54994;BME280;40891;47.242;8.648;2023-02-19T11:55:14;97275.38;;;13.85;67.84
54994;BME280;40891;47.242;8.648;2023-02-19T12:00:43;97276.81;;;13.68;71.30
54994;BME280;40891;47.242;8.648;2023-02-19T12:03:48;97266.47;;;13.77;70.81
54994;BME280;40891;47.242;8.648;2023-02-19T12:06:29;97254.34;;;13.93;70.02
54994;BME280;40891;47.242;8.648;2023-02-19T12:09:30;97264.28;;;13.59;72.16
54994;BME280;40891;47.242;8.648;2023-02-19T12:12:23;97266.88;;;13.54;72.84
54994;BME280;40891;47.242;8.648;2023-02-19T12:23:35;97271.94;;;13.21;74.43
54994;BME280;40891;47.242;8.648;2023-02-19T12:26:26;97271.78;;;12.49;76.75
54994;BME280;40891;47.242;8.648;2023-02-19T12:37:55;97262.09;;;12.54;76.25
54994;BME280;40891;47.242;8.648;2023-02-19T12:43:21;97263.91;;;12.98;73.77
54994;BME280;40891;47.242;8.648;2023-02-19T12:51:14;97264.44;;;12.93;72.96
54994;BME280;40891;47.242;8.648;2023-02-19T12:53:47;97263.56;;;12.96;73.18
54994;BME280;40891;47.242;8.648;2023-02-19T12:56:18;97270.56;;;12.75;74.25
54994;BME280;40891;47.242;8.648;2023-02-19T12:58:49;97267.53;;;12.57;73.60
54994;BME280;40891;47.242;8.648;2023-02-19T13:01:25;97268.78;;;12.69;73.55
54994;BME280;40891;47.242;8.648;2023-02-19T13:04:16;97259.09;;;12.61;74.48
54994;BME280;40891;47.242;8.648;2023-02-19T13:06:47;97264.06;;;12.41;74.76
54994;BME280;40891;47.242;8.648;2023-02-19T13:09:42;97280.13;;;12.37;74.87
54994;BME280;40891;47.242;8.648;2023-02-19T13:18:02;97293.34;;;11.91;76.82
54994;BME280;40891;47.242;8.648;2023-02-19T13:20:37;97288.63;;;11.88;77.33
54994;BME280;40891;47.242;8.648;2023-02-19T13:23:10;97293.56;;;11.68;78.25
54994;BME280;40891;47.242;8.648;2023-02-19T13:31:32;97295.63;;;11.48;79.02
54994;BME280;40891;47.242;8.648;2023-02-19T13:36:53;97305.91;;;11.51;78.28
54994;BME280;40891;47.242;8.648;2023-02-19T13:39:19;97304.34;;;11.34;79.03
54994;BME280;40891;47.242;8.648;2023-02-19T13:41:50;97299.31;;;11.45;78.61
54994;BME280;40891;47.242;8.648;2023-02-19T13:44:19;97302.78;;;11.49;78.92
54994;BME280;40891;47.242;8.648;2023-02-19T13:46:47;97308.78;;;11.63;78.26
54994;BME280;40891;47.242;8.648;2023-02-19T13:51:57;97288.19;;;11.45;78.21
54994;BME280;40891;47.242;8.648;2023-02-19T13:54:34;97291.47;;;11.56;78.53
54994;BME280;40891;47.242;8.648;2023-02-19T13:59:48;97287.81;;;11.75;76.75
54994;BME280;40891;47.242;8.648;2023-02-19T14:05:07;97291.34;;;11.59;77.83
54994;BME280;40891;47.242;8.648;2023-02-19T14:07:49;97295.06;;;11.40;77.90
54994;BME280;40891;47.242;8.648;2023-02-19T14:10:53;97289.22;;;11.35;78.21
54994;BME280;40891;47.242;8.648;2023-02-19T14:13:57;97286.44;;;11.19;78.91
54994;BME280;40891;47.242;8.648;2023-02-19T14:16:31;97292.88;;;11.16;79.60
54994;BME280;40891;47.242;8.648;2023-02-19T14:18:57;97290.44;;;11.18;79.74
54994;BME280;40891;47.242;8.648;2023-02-19T14:21:25;97290.53;;;11.14;78.83
54994;BME280;40891;47.242;8.648;2023-02-19T14:23:58;97295.31;;;11.14;79.02
54994;BME280;40891;47.242;8.648;2023-02-19T14:26:25;97282.78;;;11.38;77.51
54994;BME280;40891;47.242;8.648;2023-02-19T14:28:52;97269.81;;;11.31;77.91
54994;BME280;40891;47.242;8.648;2023-02-19T14:31:23;97271.91;;;11.27;77.47
54994;BME280;40891;47.242;8.648;2023-02-19T14:33:52;97276.50;;;11.34;77.38
54994;BME280;40891;47.242;8.648;2023-02-19T14:38:57;97276.66;;;11.43;76.74
54994;BME280;40891;47.242;8.648;2023-02-19T14:41:24;97276.84;;;11.52;75.91
54994;BME280;40891;47.242;8.648;2023-02-19T14:43:53;97278.41;;;11.53;75.90
54994;BME280;40891;47.242;8.648;2023-02-19T14:46:40;97270.38;;;11.55;75.81
54994;BME280;40891;47.242;8.648;2023-02-19T14:51:45;97283.13;;;11.40;75.74
54994;BME280;40891;47.242;8.648;2023-02-19T14:54:20;97278.75;;;11.39;76.05
54994;BME280;40891;47.242;8.648;2023-02-19T14:56:53;97270.13;;;11.33;76.94
54994;BME280;40891;47.242;8.648;2023-02-19T15:01:44;97286.44;;;11.19;77.05